createdAt,value
2023-01-17T00:02:07.894Z,1.23
2023-01-17T00:04:34.603Z,2.57
2023-01-17T00:07:01.102Z,1.50
2023-01-17T00:09:27.600Z,2.10
2023-01-17T00:11:54.177Z,2.90
2023-01-17T00:14:22.067Z,1.67
2023-01-17T00:16:48.739Z,2.40
2023-01-17T00:19:15.252Z,2.90
2023-01-17T00:21:41.728Z,2.87
2023-01-17T00:24:08.984Z,1.90
2023-01-17T00:26:35.560Z,2.23
2023-01-17T00:29:02.081Z,2.43
2023-01-17T00:31:29.958Z,2.20
2023-01-17T00:33:56.526Z,3.53
2023-01-17T00:36:23.015Z,2.60
2023-01-17T00:38:49.502Z,1.97
2023-01-17T00:41:16.007Z,2.30
2023-01-17T00:43:42.527Z,2.13
2023-01-17T00:46:09.104Z,1.80
2023-01-17T00:48:37.852Z,2.10
2023-01-17T00:51:04.599Z,1.67
2023-01-17T00:53:31.086Z,1.87
2023-01-17T00:56:00.931Z,2.23
2023-01-17T00:58:27.419Z,1.77
2023-01-17T01:00:54.328Z,1.50
2023-01-17T01:03:20.941Z,2.97
2023-01-17T01:05:48.785Z,2.27
2023-01-17T01:08:20.791Z,2.37
2023-01-17T01:10:48.483Z,1.67
2023-01-17T01:13:15.452Z,1.90
2023-01-17T01:15:42.003Z,2.07
2023-01-17T01:18:09.643Z,5.47
2023-01-17T01:20:36.262Z,1.57
2023-01-17T01:23:05.467Z,1.97
2023-01-17T01:25:31.947Z,2.73
2023-01-17T01:28:03.285Z,2.40
2023-01-17T01:30:29.828Z,2.27
2023-01-17T01:32:56.354Z,1.53
2023-01-17T01:35:23.617Z,3.10
2023-01-17T01:37:50.152Z,2.37
2023-01-17T01:40:20.072Z,2.70
2023-01-17T01:42:50.932Z,3.87
2023-01-17T01:45:19.432Z,2.73
2023-01-17T01:47:47.645Z,2.47
2023-01-17T01:50:14.299Z,1.83
2023-01-17T01:52:43.578Z,2.17
2023-01-17T01:55:15.561Z,3.10
2023-01-17T01:57:48.920Z,2.50
2023-01-17T02:00:18.366Z,2.00
2023-01-17T02:02:47.233Z,2.40
2023-01-17T02:05:14.295Z,3.47
2023-01-17T02:07:45.621Z,1.67
2023-01-17T02:10:12.160Z,2.23
2023-01-17T02:12:39.349Z,2.53
2023-01-17T02:15:08.220Z,2.00
2023-01-17T02:17:45.328Z,2.10
2023-01-17T02:20:35.758Z,3.17
2023-01-17T02:23:25.966Z,2.13
2023-01-17T02:26:25.281Z,2.57
2023-01-17T02:29:06.946Z,3.30
2023-01-17T02:31:41.484Z,2.73
2023-01-17T02:34:15.130Z,1.57
2023-01-17T02:36:46.652Z,3.63
2023-01-17T02:39:19.612Z,1.97
2023-01-17T02:41:50.811Z,2.13
2023-01-17T02:44:20.105Z,1.57
2023-01-17T02:46:49.975Z,2.67
2023-01-17T02:49:19.088Z,3.30
2023-01-17T02:52:01.584Z,2.30
2023-01-17T02:55:01.332Z,3.13
2023-01-17T02:57:49.884Z,3.60
2023-01-17T03:00:24.116Z,1.77
2023-01-17T03:03:01.856Z,1.90
2023-01-17T03:05:33.813Z,1.80
2023-01-17T03:08:01.447Z,2.10
2023-01-17T03:10:31.022Z,4.17
2023-01-17T03:12:59.239Z,3.50
2023-01-17T03:15:25.791Z,2.07
2023-01-17T03:17:56.559Z,2.30
2023-01-17T03:20:23.065Z,1.40
2023-01-17T03:22:49.658Z,1.70
2023-01-17T03:25:16.571Z,2.33
2023-01-17T03:27:43.099Z,1.50
2023-01-17T03:30:10.612Z,2.30
2023-01-17T03:32:37.133Z,2.40
2023-01-17T03:35:06.098Z,2.27
2023-01-17T03:37:32.588Z,1.70
2023-01-17T03:39:59.092Z,3.40
2023-01-17T03:42:25.623Z,3.10
2023-01-17T03:44:52.102Z,2.60
2023-01-17T03:47:18.612Z,3.27
2023-01-17T03:49:45.127Z,2.73
2023-01-17T03:52:13.052Z,3.03
2023-01-17T03:54:39.599Z,3.10
2023-01-17T03:57:06.119Z,1.90
2023-01-17T03:59:32.660Z,1.63
2023-01-17T04:01:59.234Z,1.70
2023-01-17T04:04:25.828Z,3.47
2023-01-17T04:06:52.326Z,1.73
2023-01-17T04:09:20.221Z,4.33
2023-01-17T04:11:46.716Z,1.40
2023-01-17T04:14:13.191Z,2.70
2023-01-17T04:16:39.841Z,2.77
2023-01-17T04:19:06.357Z,2.43
2023-01-17T04:21:32.900Z,2.10
2023-01-17T04:23:59.403Z,2.37
2023-01-17T04:26:27.250Z,2.43
2023-01-17T04:28:53.782Z,2.20
2023-01-17T04:31:20.436Z,2.10
2023-01-17T04:33:47.000Z,2.33
2023-01-17T04:36:13.514Z,2.43
2023-01-17T04:38:40.011Z,2.77
2023-01-17T04:41:06.508Z,2.17
2023-01-17T04:43:34.374Z,2.40
2023-01-17T04:46:01.122Z,3.40
2023-01-17T04:48:27.713Z,1.93
2023-01-17T04:50:59.480Z,1.63
2023-01-17T04:53:26.068Z,2.40
2023-01-17T04:55:52.600Z,2.23
2023-01-17T04:58:19.113Z,1.70
2023-01-17T05:00:46.976Z,2.33
2023-01-17T05:03:13.539Z,2.33
2023-01-17T05:05:40.022Z,2.30
2023-01-17T05:08:06.527Z,2.03
2023-01-17T05:10:33.113Z,2.63
2023-01-17T05:12:59.974Z,3.23
2023-01-17T05:15:27.281Z,2.73
2023-01-17T05:17:55.289Z,2.60
2023-01-17T05:20:23.128Z,3.20
2023-01-17T05:22:52.346Z,2.13
2023-01-17T05:25:18.906Z,2.13
2023-01-17T05:27:45.404Z,1.97
2023-01-17T05:30:12.636Z,2.43
2023-01-17T05:32:39.198Z,2.37
2023-01-17T05:35:08.270Z,1.93
2023-01-17T05:37:34.760Z,2.20
2023-01-17T05:40:01.287Z,2.20
2023-01-17T05:42:27.793Z,2.20
2023-01-17T05:44:54.308Z,3.90
2023-01-17T05:47:20.861Z,2.50
2023-01-17T05:49:47.359Z,1.67
2023-01-17T05:52:15.224Z,3.10
2023-01-17T05:54:41.678Z,2.47
2023-01-17T05:57:08.190Z,2.23
2023-01-17T05:59:37.505Z,1.93
2023-01-17T06:02:04.185Z,1.70
2023-01-17T06:04:30.703Z,3.10
2023-01-17T06:06:57.239Z,1.70
2023-01-17T06:09:25.129Z,1.80
2023-01-17T06:11:51.627Z,2.20
2023-01-17T06:14:18.110Z,3.67
2023-01-17T06:16:44.622Z,1.90
2023-01-17T06:19:11.123Z,2.43
2023-01-17T06:21:37.659Z,2.50
2023-01-17T06:24:04.794Z,3.83
2023-01-17T06:26:32.717Z,4.27
2023-01-17T06:28:59.251Z,2.37
2023-01-17T06:31:25.831Z,2.53
2023-01-17T06:33:52.334Z,2.70
2023-01-17T06:36:18.887Z,3.43
2023-01-17T06:38:49.387Z,3.20
2023-01-17T06:41:15.937Z,1.80
2023-01-17T06:43:43.789Z,2.30
2023-01-17T06:46:12.001Z,1.87
2023-01-17T06:48:38.522Z,2.03
2023-01-17T06:51:05.247Z,2.10
2023-01-17T06:53:31.763Z,3.17
2023-01-17T06:55:58.272Z,2.17
2023-01-17T06:58:24.839Z,1.77
2023-01-17T07:00:52.860Z,3.03
2023-01-17T07:03:21.843Z,2.17
2023-01-17T07:05:48.678Z,3.13
2023-01-17T07:08:15.766Z,2.40
2023-01-17T07:10:42.422Z,2.47
2023-01-17T07:13:08.899Z,2.40
2023-01-17T07:15:35.445Z,2.10
2023-01-17T07:18:04.178Z,2.10
2023-01-17T07:20:30.791Z,2.20
2023-01-17T07:22:57.304Z,3.03
2023-01-17T07:25:23.949Z,2.37
2023-01-17T07:27:53.687Z,2.60
2023-01-17T07:30:20.568Z,3.30
2023-01-17T07:32:50.933Z,3.23
2023-01-17T07:35:19.076Z,2.80
2023-01-17T07:37:47.558Z,2.60
2023-01-17T07:40:14.378Z,2.13
2023-01-17T07:42:40.875Z,2.33
2023-01-17T07:45:08.755Z,4.53
2023-01-17T07:47:35.297Z,2.40
2023-01-17T07:50:01.977Z,2.83
2023-01-17T07:52:29.971Z,3.97
2023-01-17T07:54:56.629Z,3.93
2023-01-17T07:57:23.497Z,3.97
2023-01-17T07:59:50.040Z,3.30
2023-01-17T08:02:17.877Z,2.77
2023-01-17T08:04:44.463Z,3.10
2023-01-17T08:07:11.111Z,2.90
2023-01-17T08:09:39.171Z,4.30
2023-01-17T08:12:06.159Z,25.20
2023-01-17T08:14:32.744Z,18.53
2023-01-17T08:17:04.503Z,15.00
2023-01-17T08:19:31.018Z,9.27
2023-01-17T08:21:57.544Z,5.80
2023-01-17T08:24:24.142Z,6.17
2023-01-17T08:26:52.024Z,7.40
2023-01-17T08:29:18.575Z,5.00
2023-01-17T08:31:45.129Z,5.73
2023-01-17T08:34:11.628Z,4.60
2023-01-17T08:36:38.121Z,6.17
2023-01-17T08:39:04.650Z,5.37
2023-01-17T08:41:31.203Z,4.90
2023-01-17T08:43:59.347Z,4.77
2023-01-17T08:46:25.842Z,3.00
2023-01-17T08:48:53.240Z,2.97
2023-01-17T08:51:19.769Z,3.37
2023-01-17T08:53:46.277Z,2.73
2023-01-17T08:56:12.805Z,3.90
2023-01-17T08:58:39.292Z,2.97
2023-01-17T09:01:07.538Z,2.60
2023-01-17T09:03:34.738Z,2.83
2023-01-17T09:06:03.173Z,3.20
2023-01-17T09:08:30.610Z,3.17
2023-01-17T09:10:57.123Z,2.60
2023-01-17T09:13:23.662Z,2.70
2023-01-17T09:15:50.369Z,2.53
2023-01-17T09:18:18.253Z,3.53
2023-01-17T09:20:44.763Z,4.30
2023-01-17T09:23:11.275Z,3.97
2023-01-17T09:25:37.800Z,3.67
2023-01-17T09:28:04.301Z,4.47
2023-01-17T09:30:30.823Z,4.27
2023-01-17T09:32:57.393Z,3.93
2023-01-17T09:35:25.282Z,4.50
2023-01-17T09:37:51.880Z,3.60
2023-01-17T09:40:22.130Z,3.93
2023-01-17T09:42:51.787Z,3.40
2023-01-17T09:45:19.727Z,3.47
2023-01-17T09:47:48.614Z,4.47
2023-01-17T09:50:30.200Z,4.33
2023-01-17T09:52:59.325Z,3.53
2023-01-17T09:55:28.116Z,3.60
2023-01-17T09:58:02.237Z,6.40
2023-01-17T10:00:40.290Z,8.63
2023-01-17T10:03:25.955Z,5.37
2023-01-17T10:06:09.995Z,4.53
2023-01-17T10:09:03.582Z,3.73
2023-01-17T10:11:48.833Z,7.27
2023-01-17T10:14:28.122Z,5.93
2023-01-17T10:17:01.993Z,6.77
2023-01-17T10:19:42.204Z,4.70
2023-01-17T10:22:28.637Z,3.40
2023-01-17T10:25:19.052Z,3.37
2023-01-17T10:27:50.595Z,3.60
2023-01-17T10:30:22.626Z,2.87
2023-01-17T10:32:49.686Z,5.67
2023-01-17T10:35:22.434Z,5.33
2023-01-17T10:37:52.919Z,4.10
2023-01-17T10:40:22.317Z,5.80
2023-01-17T10:42:53.297Z,4.27
2023-01-17T10:45:22.272Z,5.40
2023-01-17T10:47:57.926Z,4.37
2023-01-17T10:50:27.974Z,5.43
2023-01-17T10:53:04.443Z,2.77
2023-01-17T10:55:38.820Z,2.67
2023-01-17T10:58:08.521Z,3.70
2023-01-17T11:00:42.404Z,1.83
2023-01-17T11:03:10.534Z,2.40
2023-01-17T11:05:37.108Z,2.57
2023-01-17T11:08:07.351Z,2.80
2023-01-17T11:10:37.631Z,1.70
2023-01-17T11:13:06.483Z,2.87
2023-01-17T11:15:38.235Z,1.73
2023-01-17T11:18:13.928Z,2.63
2023-01-17T11:20:40.940Z,2.63
2023-01-17T11:23:15.051Z,2.57
2023-01-17T11:25:49.815Z,2.57
2023-01-17T11:28:23.104Z,2.03
2023-01-17T11:30:52.796Z,1.67
2023-01-17T11:33:34.347Z,1.97
2023-01-17T11:36:00.934Z,1.73
2023-01-17T11:38:28.951Z,2.13
2023-01-17T11:40:55.511Z,2.13
2023-01-17T11:43:23.825Z,3.63
2023-01-17T11:46:05.731Z,3.80
2023-01-17T11:48:37.558Z,2.47
2023-01-17T11:51:12.356Z,2.10
2023-01-17T11:53:44.309Z,2.30
2023-01-17T11:56:17.685Z,2.53
2023-01-17T11:58:44.830Z,1.80
2023-01-17T12:01:25.800Z,2.40
2023-01-17T12:04:22.058Z,1.67
2023-01-17T12:06:59.990Z,2.53
2023-01-17T12:09:36.477Z,1.80
2023-01-17T12:12:09.359Z,3.30
2023-01-17T12:14:43.263Z,2.27
2023-01-17T12:17:22.939Z,2.87
2023-01-17T12:19:58.854Z,1.93
2023-01-17T12:22:36.541Z,1.63
2023-01-17T12:25:20.363Z,1.90
2023-01-17T12:27:58.279Z,2.60
2023-01-17T12:30:34.127Z,3.23
2023-01-17T12:33:13.292Z,2.53
2023-01-17T12:35:45.094Z,1.30
2023-01-17T12:38:31.288Z,1.77
2023-01-17T12:41:06.911Z,1.83
2023-01-17T12:43:36.347Z,2.23
2023-01-17T12:46:10.463Z,1.40
2023-01-17T12:48:37.392Z,1.93
2023-01-17T12:51:08.376Z,2.00
2023-01-17T12:53:40.956Z,2.43
2023-01-17T12:56:14.250Z,1.63
2023-01-17T12:58:44.718Z,2.23
2023-01-17T13:01:20.816Z,2.00
2023-01-17T13:03:58.297Z,2.90
2023-01-17T13:06:31.621Z,1.87
2023-01-17T13:09:02.414Z,2.00
2023-01-17T13:11:36.463Z,2.50
2023-01-17T13:14:05.893Z,1.83
2023-01-17T13:16:37.000Z,4.77
2023-01-17T13:19:11.233Z,2.60
2023-01-17T13:21:37.919Z,1.83
2023-01-17T13:24:24.687Z,1.77
2023-01-17T13:27:15.947Z,3.83
2023-01-17T13:29:53.582Z,1.93
2023-01-17T13:32:42.785Z,3.53
2023-01-17T13:35:21.743Z,2.07
2023-01-17T13:38:03.893Z,2.30
2023-01-17T13:40:36.746Z,2.60
2023-01-17T13:43:10.786Z,1.97
2023-01-17T13:45:38.814Z,1.83
2023-01-17T13:48:33.110Z,2.53
2023-01-17T13:51:01.318Z,2.50
2023-01-17T13:53:55.022Z,2.43
2023-01-17T13:56:42.286Z,1.70
2023-01-17T13:59:28.711Z,2.00
2023-01-17T14:01:56.175Z,1.90
2023-01-17T14:04:24.294Z,2.47
2023-01-17T14:06:56.548Z,3.07
2023-01-17T14:09:26.604Z,2.77
2023-01-17T14:11:59.849Z,2.90
2023-01-17T14:14:44.716Z,3.87
2023-01-17T14:17:47.564Z,2.63
2023-01-17T14:20:35.826Z,6.20
2023-01-17T14:23:05.094Z,3.90
2023-01-17T14:25:39.020Z,3.27
2023-01-17T14:28:18.963Z,3.03
2023-01-17T14:30:49.741Z,3.23
2023-01-17T14:33:19.980Z,1.70
2023-01-17T14:35:52.051Z,1.93
2023-01-17T14:38:21.326Z,1.47
2023-01-17T14:40:52.524Z,2.13
2023-01-17T14:43:21.429Z,2.07
2023-01-17T14:45:56.014Z,2.80
2023-01-17T14:48:23.523Z,2.50
2023-01-17T14:50:51.431Z,1.63
2023-01-17T14:53:20.574Z,1.57
2023-01-17T14:55:53.261Z,1.87
2023-01-17T14:58:22.828Z,4.40
2023-01-17T15:00:53.311Z,10.23
2023-01-17T15:03:20.482Z,10.17
2023-01-17T15:05:49.742Z,7.83
2023-01-17T15:08:19.483Z,4.80
2023-01-17T15:13:43.901Z,4.00
2023-01-17T15:16:21.241Z,4.67
2023-01-17T15:18:48.187Z,6.30
2023-01-17T15:21:16.754Z,4.03
2023-01-17T15:23:46.288Z,6.17
2023-01-17T15:26:15.698Z,7.47
2023-01-17T15:28:43.025Z,5.57
2023-01-17T15:31:12.789Z,5.07
2023-01-17T15:33:42.757Z,4.67
2023-01-17T15:36:16.462Z,4.70
2023-01-17T15:38:50.000Z,4.83
2023-01-17T15:41:20.960Z,3.13
2023-01-17T15:43:47.936Z,3.53
2023-01-17T15:46:28.727Z,3.23
2023-01-17T15:49:07.523Z,2.37
2023-01-17T15:51:37.495Z,2.67
2023-01-17T15:54:40.967Z,3.73
2023-01-17T15:57:19.073Z,4.10
2023-01-17T15:59:47.713Z,5.17
2023-01-17T16:02:35.189Z,4.07
2023-01-17T16:05:31.102Z,4.57
2023-01-17T16:08:17.692Z,4.27
2023-01-17T16:10:44.787Z,4.63
2023-01-17T16:13:12.928Z,4.53
2023-01-17T16:15:39.681Z,4.00
2023-01-17T16:18:12.155Z,4.37
2023-01-17T16:20:43.541Z,4.27
2023-01-17T16:23:10.510Z,2.77
2023-01-17T16:25:37.071Z,2.03
2023-01-17T16:28:04.505Z,1.90
2023-01-17T16:30:31.678Z,2.13
2023-01-17T16:32:58.508Z,2.70
2023-01-17T16:35:26.838Z,1.73
2023-01-17T16:37:56.282Z,2.07
2023-01-17T16:40:26.056Z,4.63
2023-01-17T16:42:52.642Z,9.23
2023-01-17T16:45:19.325Z,10.23
2023-01-17T16:47:47.808Z,9.67
2023-01-17T16:50:16.290Z,11.20
2023-01-17T16:52:42.838Z,12.13
2023-01-17T16:55:13.286Z,10.67
2023-01-17T16:57:39.961Z,8.30
2023-01-17T17:00:08.558Z,6.93
2023-01-17T17:02:35.127Z,4.50
2023-01-17T17:05:01.667Z,4.97
2023-01-17T17:07:28.188Z,4.23
2023-01-17T17:09:54.781Z,3.33
2023-01-17T17:12:22.650Z,4.10
2023-01-17T17:14:49.186Z,3.73
2023-01-17T17:17:15.703Z,3.97
2023-01-17T17:19:42.514Z,4.90
2023-01-17T17:22:09.036Z,3.57
2023-01-17T17:24:35.563Z,3.67
2023-01-17T17:27:02.086Z,3.13
2023-01-17T17:29:29.991Z,2.83
2023-01-17T17:31:56.532Z,2.97
2023-01-17T17:34:23.055Z,3.67
2023-01-17T17:36:51.505Z,3.90
2023-01-17T17:39:18.060Z,5.33
2023-01-17T17:41:45.219Z,5.17
2023-01-17T17:44:12.295Z,6.97
2023-01-17T17:46:40.278Z,5.60
2023-01-17T17:49:06.958Z,5.17
2023-01-17T17:51:35.413Z,7.70
2023-01-17T17:54:04.666Z,9.37
2023-01-17T17:56:32.471Z,9.53
2023-01-17T17:59:00.534Z,8.53
2023-01-17T18:01:27.405Z,7.20
2023-01-17T18:04:00.483Z,6.60
2023-01-17T18:06:27.196Z,6.07
2023-01-17T18:08:53.778Z,7.17
2023-01-17T18:11:21.433Z,5.03
2023-01-17T18:13:49.406Z,6.17
2023-01-17T18:16:18.445Z,5.27
2023-01-17T18:18:47.091Z,4.13
2023-01-17T18:21:16.755Z,5.47
2023-01-17T18:23:44.683Z,5.40
2023-01-17T18:26:16.276Z,7.17
2023-01-17T18:28:42.890Z,6.27
2023-01-17T18:31:09.508Z,6.77
2023-01-17T18:33:36.218Z,5.80
2023-01-17T18:36:04.754Z,4.97
2023-01-17T18:38:35.964Z,4.77
2023-01-17T18:41:02.674Z,4.57
2023-01-17T18:43:29.192Z,3.53
2023-01-17T18:45:55.700Z,4.57
2023-01-17T18:48:22.910Z,4.17
2023-01-17T18:50:58.051Z,4.17
2023-01-17T18:53:25.028Z,4.30
2023-01-17T18:55:57.310Z,3.90
2023-01-17T18:58:25.018Z,3.53
2023-01-17T19:00:52.738Z,4.43
2023-01-17T19:03:20.351Z,3.97
2023-01-17T19:05:47.201Z,3.80
2023-01-17T19:08:14.706Z,4.13
2023-01-17T19:10:41.500Z,3.10
2023-01-17T19:13:10.529Z,3.07
2023-01-17T19:15:37.350Z,2.93
2023-01-17T19:18:04.905Z,4.57
2023-01-17T19:20:31.540Z,4.43
2023-01-17T19:22:58.071Z,5.93
2023-01-17T19:25:24.616Z,7.30
2023-01-17T19:27:51.348Z,8.93
2023-01-17T19:30:20.568Z,4.77
2023-01-17T19:32:49.036Z,4.13
2023-01-17T19:35:15.772Z,4.27
2023-01-17T19:37:44.830Z,7.90
2023-01-17T19:40:12.353Z,6.90
2023-01-17T19:42:38.911Z,5.20
2023-01-17T19:45:06.530Z,4.37
2023-01-17T19:47:34.412Z,6.50
2023-01-17T19:50:00.992Z,6.83
2023-01-17T19:52:29.307Z,4.37
2023-01-17T19:54:55.859Z,4.27
2023-01-17T19:57:22.546Z,5.33
2023-01-17T19:59:51.911Z,4.47
2023-01-17T20:02:18.523Z,3.73
2023-01-17T20:04:46.427Z,4.20
2023-01-17T20:07:12.979Z,3.17
2023-01-17T20:09:39.462Z,3.53
2023-01-17T20:12:06.602Z,3.60
2023-01-17T20:14:33.088Z,3.13
2023-01-17T20:16:59.651Z,3.90
2023-01-17T20:19:26.294Z,3.67
2023-01-17T20:21:54.179Z,5.60
2023-01-17T20:24:20.757Z,5.47
2023-01-17T20:26:47.438Z,6.10
2023-01-17T20:29:15.663Z,4.03
2023-01-17T20:31:43.083Z,4.13
2023-01-17T20:34:11.679Z,4.40
2023-01-17T20:36:38.840Z,5.10
2023-01-17T20:39:08.127Z,4.83
2023-01-17T20:41:37.018Z,6.30
2023-01-17T20:44:05.758Z,8.40
2023-01-17T20:46:35.350Z,5.30
2023-01-17T20:49:04.008Z,4.80
2023-01-17T20:51:31.129Z,6.47
2023-01-17T20:53:59.531Z,7.40
2023-01-17T20:56:27.962Z,7.83
2023-01-17T20:58:55.151Z,9.63
2023-01-17T21:01:21.904Z,9.53
2023-01-17T21:03:49.740Z,9.23
2023-01-17T21:06:16.944Z,7.87
2023-01-17T21:08:45.040Z,8.07
2023-01-17T21:11:14.424Z,7.53
2023-01-17T21:13:43.068Z,10.63
2023-01-17T21:16:11.554Z,8.73
2023-01-17T21:18:38.131Z,8.10
2023-01-17T21:21:06.534Z,7.30
2023-01-17T21:23:33.745Z,8.33
2023-01-17T21:26:00.297Z,6.90
2023-01-17T21:28:29.620Z,6.13
2023-01-17T21:30:57.768Z,4.80
2023-01-17T21:33:26.411Z,6.03
2023-01-17T21:35:52.933Z,7.00
2023-01-17T21:38:19.484Z,7.97
2023-01-17T21:40:46.418Z,6.20
2023-01-17T21:43:13.032Z,5.40
2023-01-17T21:45:40.787Z,6.60
2023-01-17T21:48:10.911Z,7.60
2023-01-17T21:50:37.635Z,7.20
2023-01-17T21:53:04.384Z,5.13
2023-01-17T21:55:30.926Z,5.80
2023-01-17T21:57:57.795Z,8.20
2023-01-17T22:00:24.466Z,11.50
2023-01-17T22:02:51.035Z,8.70
2023-01-17T22:05:19.072Z,8.37
2023-01-17T22:07:45.676Z,5.83
2023-01-17T22:10:12.184Z,6.47
2023-01-17T22:12:38.700Z,6.33
2023-01-17T22:15:06.586Z,6.17
2023-01-17T22:17:33.088Z,8.47
2023-01-17T22:19:59.583Z,8.03
2023-01-17T22:22:31.453Z,6.93
2023-01-17T22:24:57.960Z,6.80
2023-01-17T22:27:24.481Z,8.10
2023-01-17T22:29:50.974Z,6.00
2023-01-17T22:32:17.524Z,5.77
2023-01-17T22:34:44.028Z,5.43
2023-01-17T22:37:10.561Z,5.57
2023-01-17T22:39:39.047Z,5.80
2023-01-17T22:42:05.873Z,5.73
2023-01-17T22:44:32.361Z,5.60
2023-01-17T22:46:58.924Z,5.97
2023-01-17T22:49:25.438Z,4.93
2023-01-17T22:51:51.918Z,4.93
2023-01-17T22:54:18.441Z,7.00
2023-01-17T22:56:46.341Z,4.10
2023-01-17T22:59:12.975Z,4.60
2023-01-17T23:01:39.923Z,4.33
2023-01-17T23:04:06.961Z,4.53
2023-01-17T23:06:35.705Z,5.70
2023-01-17T23:09:04.818Z,4.97
2023-01-17T23:11:32.843Z,5.90
2023-01-17T23:14:00.700Z,4.17
2023-01-17T23:16:27.195Z,4.27
2023-01-17T23:18:53.666Z,4.13
2023-01-17T23:21:20.217Z,4.73
2023-01-17T23:23:46.715Z,3.93
2023-01-17T23:26:13.243Z,3.80
2023-01-17T23:28:39.766Z,3.10
2023-01-17T23:31:07.626Z,4.00
2023-01-17T23:33:34.119Z,3.50
2023-01-17T23:36:00.632Z,3.40
2023-01-17T23:38:27.118Z,2.70
2023-01-17T23:40:58.699Z,2.87
2023-01-17T23:43:25.184Z,2.67
2023-01-17T23:45:53.333Z,4.33
2023-01-17T23:48:22.008Z,3.60
2023-01-17T23:50:48.656Z,3.63
2023-01-17T23:53:17.662Z,3.00
2023-01-17T23:55:44.156Z,3.93
2023-01-17T23:58:11.894Z,4.80
